Aviation Digital Data Service (ADDS)

Output produced by METARs form (2025 UTC 31 January 2023)
found at http://www.aviationweather.gov/metar/data/
 
VTUU 312000Z 00000KT 8000 NSC 18/16 Q1010 NOSIG
VTUU 311900Z 00000KT 8000 NSC 18/16 Q1010 NOSIG
VTUU 311800Z 05002KT 8000 NSC 19/18 Q1011 NOSIG
VTUU 311700Z 00000KT 8000 NSC 19/18 Q1011 NOSIG
VTUU 311600Z 00000KT 8000 NSC 19/18 Q1012 NOSIG
VTUU 311500Z 00000KT 9000 NSC 20/17 Q1012 NOSIG
VTUU 311400Z 06001KT 9000 NSC 22/17 Q1012 NOSIG
VTUU 311300Z 00000KT 9000 NSC 22/16 Q1011 NOSIG
VTUU 311200Z 00000KT CAVOK 23/16 Q1011 NOSIG
VTUU 311100Z 26004KT 230V310 CAVOK 26/15 Q1010 NOSIG
VTUU 311000Z 23003KT 170V270 CAVOK 29/15 Q1010 NOSIG
VTUU 310900Z 20004KT 110V240 CAVOK 30/15 Q1010 NOSIG
VTUU 310800Z VRB03KT CAVOK 30/15 Q1010 NOSIG
VTUU 310700Z 32004KT 260V040 CAVOK 29/15 Q1011 NOSIG
VTUU 310600Z VRB03KT 9000 NSC 29/15 Q1012 NOSIG
VTUU 310500Z VRB04KT 9000 NSC 26/14 Q1014 NOSIG
VTUU 310400Z VRB03KT 9000 NSC 24/14 Q1015 NOSIG
VTUU 310300Z VRB03KT 9000 NSC 22/13 Q1016 NOSIG
VTUU 310200Z 36003KT 280V090 9000 NSC 18/12 Q1016 NOSIG
VTUU 310100Z 03006KT 9000 NSC 16/12 Q1015 NOSIG
VTUU 310000Z 02004KT 7000 NSC 14/12 Q1014 NOSIG
VTUU 302300Z 01004KT CAVOK 14/11 Q1014 NOSIG
VTUU 302200Z 02004KT CAVOK 14/11 Q1014 NOSIG
VTUU 302100Z 01004KT CAVOK 14/11 Q1013 NOSIG
VTUU 302000Z 02003KT CAVOK 15/11 Q1014 NOSIG
TAF VTUU 311700Z 3118/0118 03005KT 9000 NSC